sensor_id;sensor_type;location;lat;lon;timestamp;P1;durP1;ratioP1;P2;durP2;ratioP2
34317;SDS011;20582;52.196;20.952;2023-07-28T00:02:21;10.05;;;5.60;;
34317;SDS011;20582;52.196;20.952;2023-07-28T00:04:47;10.52;;;5.43;;
34317;SDS011;20582;52.196;20.952;2023-07-28T00:07:13;9.73;;;5.75;;
34317;SDS011;20582;52.196;20.952;2023-07-28T00:09:39;10.88;;;5.93;;
34317;SDS011;20582;52.196;20.952;2023-07-28T00:12:05;11.75;;;5.60;;
34317;SDS011;20582;52.196;20.952;2023-07-28T00:14:31;11.65;;;5.85;;
34317;SDS011;20582;52.196;20.952;2023-07-28T00:16:57;8.98;;;5.43;;
34317;SDS011;20582;52.196;20.952;2023-07-28T00:19:23;9.40;;;5.13;;
34317;SDS011;20582;52.196;20.952;2023-07-28T00:21:49;11.07;;;5.68;;
34317;SDS011;20582;52.196;20.952;2023-07-28T00:24:16;11.00;;;5.60;;
34317;SDS011;20582;52.196;20.952;2023-07-28T00:26:42;11.90;;;5.38;;
34317;SDS011;20582;52.196;20.952;2023-07-28T00:29:08;12.38;;;5.47;;
34317;SDS011;20582;52.196;20.952;2023-07-28T00:31:34;11.05;;;5.95;;
34317;SDS011;20582;52.196;20.952;2023-07-28T00:34:01;10.05;;;5.68;;
34317;SDS011;20582;52.196;20.952;2023-07-28T00:36:27;11.55;;;5.50;;
34317;SDS011;20582;52.196;20.952;2023-07-28T00:38:53;11.40;;;5.75;;
34317;SDS011;20582;52.196;20.952;2023-07-28T00:41:19;10.70;;;5.70;;
34317;SDS011;20582;52.196;20.952;2023-07-28T00:43:45;9.55;;;5.25;;
34317;SDS011;20582;52.196;20.952;2023-07-28T00:46:11;12.23;;;5.50;;
34317;SDS011;20582;52.196;20.952;2023-07-28T00:48:37;11.05;;;5.40;;
34317;SDS011;20582;52.196;20.952;2023-07-28T00:51:04;10.70;;;5.72;;
34317;SDS011;20582;52.196;20.952;2023-07-28T00:53:30;10.80;;;6.00;;
34317;SDS011;20582;52.196;20.952;2023-07-28T00:55:56;9.02;;;5.65;;
34317;SDS011;20582;52.196;20.952;2023-07-28T00:58:22;12.43;;;5.90;;
34317;SDS011;20582;52.196;20.952;2023-07-28T01:00:48;12.18;;;5.88;;
34317;SDS011;20582;52.196;20.952;2023-07-28T01:03:15;10.27;;;5.10;;
34317;SDS011;20582;52.196;20.952;2023-07-28T01:05:44;9.95;;;5.40;;
34317;SDS011;20582;52.196;20.952;2023-07-28T01:08:17;10.43;;;5.35;;
34317;SDS011;20582;52.196;20.952;2023-07-28T01:10:44;11.30;;;5.00;;
34317;SDS011;20582;52.196;20.952;2023-07-28T01:13:10;9.15;;;5.35;;
34317;SDS011;20582;52.196;20.952;2023-07-28T01:15:36;11.30;;;5.65;;
34317;SDS011;20582;52.196;20.952;2023-07-28T01:18:02;10.10;;;5.43;;
34317;SDS011;20582;52.196;20.952;2023-07-28T01:20:29;10.18;;;5.32;;
34317;SDS011;20582;52.196;20.952;2023-07-28T01:23:05;8.98;;;5.03;;
34317;SDS011;20582;52.196;20.952;2023-07-28T01:26:08;10.77;;;5.55;;
34317;SDS011;20582;52.196;20.952;2023-07-28T01:28:26;10.00;;;5.63;;
34317;SDS011;20582;52.196;20.952;2023-07-28T01:30:52;9.82;;;5.00;;
34317;SDS011;20582;52.196;20.952;2023-07-28T01:33:18;10.23;;;5.45;;
34317;SDS011;20582;52.196;20.952;2023-07-28T01:35:44;10.00;;;5.40;;
34317;SDS011;20582;52.196;20.952;2023-07-28T01:38:10;10.07;;;5.45;;
34317;SDS011;20582;52.196;20.952;2023-07-28T01:40:38;8.50;;;5.38;;
34317;SDS011;20582;52.196;20.952;2023-07-28T01:43:03;11.65;;;4.97;;
34317;SDS011;20582;52.196;20.952;2023-07-28T01:45:29;8.80;;;5.60;;
34317;SDS011;20582;52.196;20.952;2023-07-28T01:47:55;11.57;;;5.35;;
34317;SDS011;20582;52.196;20.952;2023-07-28T01:50:21;10.35;;;5.07;;
34317;SDS011;20582;52.196;20.952;2023-07-28T01:52:47;8.15;;;5.30;;
34317;SDS011;20582;52.196;20.952;2023-07-28T01:55:13;9.88;;;5.20;;
34317;SDS011;20582;52.196;20.952;2023-07-28T01:57:39;8.00;;;5.05;;
34317;SDS011;20582;52.196;20.952;2023-07-28T02:00:06;9.93;;;5.60;;
34317;SDS011;20582;52.196;20.952;2023-07-28T02:02:32;9.57;;;5.10;;
34317;SDS011;20582;52.196;20.952;2023-07-28T02:04:58;9.07;;;5.07;;
34317;SDS011;20582;52.196;20.952;2023-07-28T02:07:24;10.80;;;5.38;;
34317;SDS011;20582;52.196;20.952;2023-07-28T02:09:50;9.98;;;4.90;;
34317;SDS011;20582;52.196;20.952;2023-07-28T02:12:16;9.30;;;4.70;;
34317;SDS011;20582;52.196;20.952;2023-07-28T02:14:42;9.25;;;5.28;;
34317;SDS011;20582;52.196;20.952;2023-07-28T02:17:08;8.85;;;4.95;;
34317;SDS011;20582;52.196;20.952;2023-07-28T02:19:33;9.38;;;5.40;;
34317;SDS011;20582;52.196;20.952;2023-07-28T02:21:59;9.90;;;5.10;;
34317;SDS011;20582;52.196;20.952;2023-07-28T02:24:25;9.32;;;5.18;;
34317;SDS011;20582;52.196;20.952;2023-07-28T02:26:51;11.10;;;5.57;;
34317;SDS011;20582;52.196;20.952;2023-07-28T02:29:19;10.95;;;5.88;;
34317;SDS011;20582;52.196;20.952;2023-07-28T02:31:45;11.15;;;5.30;;
34317;SDS011;20582;52.196;20.952;2023-07-28T02:34:11;9.50;;;5.13;;
34317;SDS011;20582;52.196;20.952;2023-07-28T02:36:37;10.00;;;5.40;;
34317;SDS011;20582;52.196;20.952;2023-07-28T02:39:03;9.95;;;5.82;;
34317;SDS011;20582;52.196;20.952;2023-07-28T02:41:29;8.98;;;5.20;;
34317;SDS011;20582;52.196;20.952;2023-07-28T02:43:55;9.02;;;5.60;;
34317;SDS011;20582;52.196;20.952;2023-07-28T02:46:21;8.80;;;5.57;;
34317;SDS011;20582;52.196;20.952;2023-07-28T02:48:47;9.77;;;5.80;;
34317;SDS011;20582;52.196;20.952;2023-07-28T02:51:13;9.13;;;5.60;;
34317;SDS011;20582;52.196;20.952;2023-07-28T02:53:39;11.40;;;6.10;;
34317;SDS011;20582;52.196;20.952;2023-07-28T02:56:05;10.63;;;5.68;;
34317;SDS011;20582;52.196;20.952;2023-07-28T02:58:31;10.68;;;5.90;;
34317;SDS011;20582;52.196;20.952;2023-07-28T03:00:56;11.10;;;5.40;;
34317;SDS011;20582;52.196;20.952;2023-07-28T03:03:22;10.63;;;6.13;;
34317;SDS011;20582;52.196;20.952;2023-07-28T03:05:51;12.00;;;6.30;;
34317;SDS011;20582;52.196;20.952;2023-07-28T03:08:17;10.05;;;6.18;;
34317;SDS011;20582;52.196;20.952;2023-07-28T03:10:43;10.52;;;6.03;;
34317;SDS011;20582;52.196;20.952;2023-07-28T03:13:09;10.52;;;6.10;;
34317;SDS011;20582;52.196;20.952;2023-07-28T03:15:34;12.35;;;5.93;;
34317;SDS011;20582;52.196;20.952;2023-07-28T03:18:00;10.60;;;6.18;;
34317;SDS011;20582;52.196;20.952;2023-07-28T03:20:26;10.07;;;6.15;;
34317;SDS011;20582;52.196;20.952;2023-07-28T03:22:52;11.70;;;5.90;;
34317;SDS011;20582;52.196;20.952;2023-07-28T03:25:19;10.65;;;6.55;;
34317;SDS011;20582;52.196;20.952;2023-07-28T03:27:45;9.63;;;5.95;;
34317;SDS011;20582;52.196;20.952;2023-07-28T03:30:12;12.60;;;6.30;;
34317;SDS011;20582;52.196;20.952;2023-07-28T03:32:38;9.93;;;5.70;;
34317;SDS011;20582;52.196;20.952;2023-07-28T03:35:04;10.20;;;5.55;;
34317;SDS011;20582;52.196;20.952;2023-07-28T03:37:31;10.43;;;6.18;;
34317;SDS011;20582;52.196;20.952;2023-07-28T03:39:57;10.38;;;6.05;;
34317;SDS011;20582;52.196;20.952;2023-07-28T03:42:23;11.70;;;6.10;;
34317;SDS011;20582;52.196;20.952;2023-07-28T03:44:49;9.57;;;6.10;;
34317;SDS011;20582;52.196;20.952;2023-07-28T03:47:15;10.02;;;6.10;;
34317;SDS011;20582;52.196;20.952;2023-07-28T03:49:41;9.15;;;6.18;;
34317;SDS011;20582;52.196;20.952;2023-07-28T03:52:07;9.30;;;6.00;;
34317;SDS011;20582;52.196;20.952;2023-07-28T03:54:33;10.13;;;6.15;;
34317;SDS011;20582;52.196;20.952;2023-07-28T03:56:59;10.85;;;6.82;;
34317;SDS011;20582;52.196;20.952;2023-07-28T03:59:25;11.23;;;6.47;;
34317;SDS011;20582;52.196;20.952;2023-07-28T04:01:51;12.27;;;6.65;;
34317;SDS011;20582;52.196;20.952;2023-07-28T04:04:17;12.50;;;7.13;;
34317;SDS011;20582;52.196;20.952;2023-07-28T04:06:45;9.90;;;6.20;;
34317;SDS011;20582;52.196;20.952;2023-07-28T04:09:12;10.82;;;6.30;;
34317;SDS011;20582;52.196;20.952;2023-07-28T04:11:39;12.30;;;6.70;;
34317;SDS011;20582;52.196;20.952;2023-07-28T04:14:05;9.93;;;5.53;;
34317;SDS011;20582;52.196;20.952;2023-07-28T04:16:31;10.30;;;6.03;;
34317;SDS011;20582;52.196;20.952;2023-07-28T04:18:57;10.82;;;6.43;;
34317;SDS011;20582;52.196;20.952;2023-07-28T04:21:23;12.93;;;6.03;;
34317;SDS011;20582;52.196;20.952;2023-07-28T04:23:49;10.80;;;6.00;;
34317;SDS011;20582;52.196;20.952;2023-07-28T04:26:16;11.90;;;6.55;;
34317;SDS011;20582;52.196;20.952;2023-07-28T04:28:42;11.48;;;5.82;;
34317;SDS011;20582;52.196;20.952;2023-07-28T04:31:08;11.57;;;5.95;;
34317;SDS011;20582;52.196;20.952;2023-07-28T04:33:34;12.40;;;6.00;;
34317;SDS011;20582;52.196;20.952;2023-07-28T04:36:02;13.00;;;6.28;;
34317;SDS011;20582;52.196;20.952;2023-07-28T04:38:28;11.55;;;6.22;;
34317;SDS011;20582;52.196;20.952;2023-07-28T04:40:54;9.40;;;5.53;;
34317;SDS011;20582;52.196;20.952;2023-07-28T04:43:20;9.43;;;5.80;;
34317;SDS011;20582;52.196;20.952;2023-07-28T04:45:46;10.30;;;6.22;;
34317;SDS011;20582;52.196;20.952;2023-07-28T04:48:13;10.82;;;6.30;;
34317;SDS011;20582;52.196;20.952;2023-07-28T04:50:39;9.45;;;6.10;;
34317;SDS011;20582;52.196;20.952;2023-07-28T04:53:05;12.10;;;6.45;;
34317;SDS011;20582;52.196;20.952;2023-07-28T04:55:31;8.73;;;5.97;;
34317;SDS011;20582;52.196;20.952;2023-07-28T04:57:57;10.15;;;5.85;;
34317;SDS011;20582;52.196;20.952;2023-07-28T05:00:23;9.70;;;5.90;;
34317;SDS011;20582;52.196;20.952;2023-07-28T05:02:49;11.82;;;5.88;;
34317;SDS011;20582;52.196;20.952;2023-07-28T05:05:15;9.98;;;5.95;;
34317;SDS011;20582;52.196;20.952;2023-07-28T05:07:41;11.85;;;5.53;;
34317;SDS011;20582;52.196;20.952;2023-07-28T05:10:07;9.55;;;5.75;;
34317;SDS011;20582;52.196;20.952;2023-07-28T05:12:33;10.88;;;6.45;;
34317;SDS011;20582;52.196;20.952;2023-07-28T05:14:59;9.50;;;5.63;;
34317;SDS011;20582;52.196;20.952;2023-07-28T05:17:25;9.88;;;5.70;;
34317;SDS011;20582;52.196;20.952;2023-07-28T05:19:51;12.40;;;5.75;;
34317;SDS011;20582;52.196;20.952;2023-07-28T05:22:17;12.07;;;5.90;;
34317;SDS011;20582;52.196;20.952;2023-07-28T05:24:44;12.60;;;6.28;;
34317;SDS011;20582;52.196;20.952;2023-07-28T05:27:10;11.63;;;6.25;;
34317;SDS011;20582;52.196;20.952;2023-07-28T05:29:36;10.15;;;5.72;;
34317;SDS011;20582;52.196;20.952;2023-07-28T05:32:03;9.18;;;4.90;;
34317;SDS011;20582;52.196;20.952;2023-07-28T05:34:29;11.02;;;5.82;;
34317;SDS011;20582;52.196;20.952;2023-07-28T05:36:55;13.77;;;5.20;;
34317;SDS011;20582;52.196;20.952;2023-07-28T05:39:21;10.43;;;5.25;;
34317;SDS011;20582;52.196;20.952;2023-07-28T05:41:47;11.35;;;5.53;;
34317;SDS011;20582;52.196;20.952;2023-07-28T05:44:13;10.23;;;5.32;;
34317;SDS011;20582;52.196;20.952;2023-07-28T05:46:39;8.13;;;4.55;;
34317;SDS011;20582;52.196;20.952;2023-07-28T05:49:05;13.20;;;5.57;;
34317;SDS011;20582;52.196;20.952;2023-07-28T05:51:31;14.82;;;5.63;;
34317;SDS011;20582;52.196;20.952;2023-07-28T05:53:57;10.02;;;4.88;;
34317;SDS011;20582;52.196;20.952;2023-07-28T05:56:23;8.70;;;4.95;;
34317;SDS011;20582;52.196;20.952;2023-07-28T05:58:49;10.80;;;5.00;;
34317;SDS011;20582;52.196;20.952;2023-07-28T06:01:16;11.55;;;5.00;;
34317;SDS011;20582;52.196;20.952;2023-07-28T06:03:42;9.30;;;4.60;;
34317;SDS011;20582;52.196;20.952;2023-07-28T06:06:08;12.18;;;5.30;;
34317;SDS011;20582;52.196;20.952;2023-07-28T06:08:34;10.05;;;5.05;;
34317;SDS011;20582;52.196;20.952;2023-07-28T06:11:02;8.80;;;4.68;;
34317;SDS011;20582;52.196;20.952;2023-07-28T06:13:29;10.40;;;5.07;;
34317;SDS011;20582;52.196;20.952;2023-07-28T06:15:55;11.02;;;4.68;;
34317;SDS011;20582;52.196;20.952;2023-07-28T06:18:23;12.55;;;4.88;;
34317;SDS011;20582;52.196;20.952;2023-07-28T06:20:49;14.02;;;5.43;;
34317;SDS011;20582;52.196;20.952;2023-07-28T06:23:15;12.18;;;4.72;;
34317;SDS011;20582;52.196;20.952;2023-07-28T06:25:41;12.73;;;4.68;;
34317;SDS011;20582;52.196;20.952;2023-07-28T06:28:09;8.85;;;4.65;;
34317;SDS011;20582;52.196;20.952;2023-07-28T06:30:36;11.02;;;4.72;;
34317;SDS011;20582;52.196;20.952;2023-07-28T06:33:02;11.55;;;4.97;;
34317;SDS011;20582;52.196;20.952;2023-07-28T06:35:28;15.65;;;5.03;;
34317;SDS011;20582;52.196;20.952;2023-07-28T06:37:54;9.07;;;4.97;;
34317;SDS011;20582;52.196;20.952;2023-07-28T06:40:20;15.93;;;5.20;;
34317;SDS011;20582;52.196;20.952;2023-07-28T06:42:46;12.15;;;4.57;;
34317;SDS011;20582;52.196;20.952;2023-07-28T06:45:12;8.95;;;4.47;;
34317;SDS011;20582;52.196;20.952;2023-07-28T06:47:39;13.27;;;4.65;;
34317;SDS011;20582;52.196;20.952;2023-07-28T06:50:05;8.15;;;4.47;;
34317;SDS011;20582;52.196;20.952;2023-07-28T06:52:31;12.38;;;4.70;;
34317;SDS011;20582;52.196;20.952;2023-07-28T06:54:57;8.60;;;4.57;;
34317;SDS011;20582;52.196;20.952;2023-07-28T06:57:23;9.63;;;4.75;;
34317;SDS011;20582;52.196;20.952;2023-07-28T06:59:49;10.68;;;4.65;;
34317;SDS011;20582;52.196;20.952;2023-07-28T07:02:15;11.48;;;5.10;;
34317;SDS011;20582;52.196;20.952;2023-07-28T07:04:42;11.43;;;5.30;;
34317;SDS011;20582;52.196;20.952;2023-07-28T07:07:08;24.27;;;5.97;;
34317;SDS011;20582;52.196;20.952;2023-07-28T07:09:34;12.38;;;6.40;;
34317;SDS011;20582;52.196;20.952;2023-07-28T07:12:00;14.27;;;6.15;;
34317;SDS011;20582;52.196;20.952;2023-07-28T07:14:26;14.50;;;6.88;;
34317;SDS011;20582;52.196;20.952;2023-07-28T07:16:52;24.83;;;7.80;;
34317;SDS011;20582;52.196;20.952;2023-07-28T07:19:18;19.88;;;8.25;;
34317;SDS011;20582;52.196;20.952;2023-07-28T07:21:44;32.05;;;9.35;;
34317;SDS011;20582;52.196;20.952;2023-07-28T07:24:10;20.33;;;9.50;;
34317;SDS011;20582;52.196;20.952;2023-07-28T07:26:39;30.05;;;9.57;;
34317;SDS011;20582;52.196;20.952;2023-07-28T07:29:05;19.05;;;10.35;;
34317;SDS011;20582;52.196;20.952;2023-07-28T07:31:31;19.50;;;9.38;;
34317;SDS011;20582;52.196;20.952;2023-07-28T07:33:57;20.45;;;9.93;;
34317;SDS011;20582;52.196;20.952;2023-07-28T07:36:23;22.52;;;10.32;;
34317;SDS011;20582;52.196;20.952;2023-07-28T07:38:49;17.48;;;11.18;;
34317;SDS011;20582;52.196;20.952;2023-07-28T07:41:15;19.23;;;10.93;;
34317;SDS011;20582;52.196;20.952;2023-07-28T07:43:44;19.20;;;11.35;;
34317;SDS011;20582;52.196;20.952;2023-07-28T07:46:10;19.17;;;10.85;;
34317;SDS011;20582;52.196;20.952;2023-07-28T07:48:36;18.23;;;10.77;;
34317;SDS011;20582;52.196;20.952;2023-07-28T07:51:02;18.48;;;11.73;;
34317;SDS011;20582;52.196;20.952;2023-07-28T07:53:28;20.05;;;12.27;;
34317;SDS011;20582;52.196;20.952;2023-07-28T07:55:54;21.30;;;12.50;;
34317;SDS011;20582;52.196;20.952;2023-07-28T07:58:20;20.70;;;12.75;;
34317;SDS011;20582;52.196;20.952;2023-07-28T08:00:46;19.70;;;12.43;;
34317;SDS011;20582;52.196;20.952;2023-07-28T08:03:12;16.25;;;11.25;;
34317;SDS011;20582;52.196;20.952;2023-07-28T08:05:38;18.30;;;12.25;;
34317;SDS011;20582;52.196;20.952;2023-07-28T08:08:04;19.75;;;12.13;;
34317;SDS011;20582;52.196;20.952;2023-07-28T08:10:32;19.92;;;12.52;;
34317;SDS011;20582;52.196;20.952;2023-07-28T08:12:58;17.35;;;12.05;;
34317;SDS011;20582;52.196;20.952;2023-07-28T08:15:24;18.88;;;11.98;;
34317;SDS011;20582;52.196;20.952;2023-07-28T08:17:50;17.27;;;12.07;;
34317;SDS011;20582;52.196;20.952;2023-07-28T08:20:17;18.88;;;11.63;;
34317;SDS011;20582;52.196;20.952;2023-07-28T08:22:43;16.58;;;11.02;;
34317;SDS011;20582;52.196;20.952;2023-07-28T08:25:09;16.48;;;11.02;;
34317;SDS011;20582;52.196;20.952;2023-07-28T08:27:35;17.63;;;10.93;;
34317;SDS011;20582;52.196;20.952;2023-07-28T08:30:02;16.35;;;10.38;;
34317;SDS011;20582;52.196;20.952;2023-07-28T08:32:28;16.35;;;11.30;;
34317;SDS011;20582;52.196;20.952;2023-07-28T08:34:54;16.05;;;9.68;;
34317;SDS011;20582;52.196;20.952;2023-07-28T08:37:20;17.08;;;10.10;;
34317;SDS011;20582;52.196;20.952;2023-07-28T08:39:46;15.35;;;9.40;;
34317;SDS011;20582;52.196;20.952;2023-07-28T08:42:12;14.23;;;10.05;;
34317;SDS011;20582;52.196;20.952;2023-07-28T08:44:38;14.27;;;9.77;;
34317;SDS011;20582;52.196;20.952;2023-07-28T08:47:04;14.98;;;8.80;;
34317;SDS011;20582;52.196;20.952;2023-07-28T08:49:30;16.98;;;8.25;;
34317;SDS011;20582;52.196;20.952;2023-07-28T08:51:58;14.25;;;8.23;;
34317;SDS011;20582;52.196;20.952;2023-07-28T08:54:24;14.85;;;8.40;;
34317;SDS011;20582;52.196;20.952;2023-07-28T08:56:50;13.10;;;7.63;;
34317;SDS011;20582;52.196;20.952;2023-07-28T08:59:23;13.07;;;8.05;;
34317;SDS011;20582;52.196;20.952;2023-07-28T09:01:54;12.40;;;8.10;;
34317;SDS011;20582;52.196;20.952;2023-07-28T09:04:21;13.85;;;8.02;;
34317;SDS011;20582;52.196;20.952;2023-07-28T09:06:48;12.38;;;8.15;;
34317;SDS011;20582;52.196;20.952;2023-07-28T09:09:15;12.35;;;7.55;;
34317;SDS011;20582;52.196;20.952;2023-07-28T09:11:44;12.70;;;8.02;;
34317;SDS011;20582;52.196;20.952;2023-07-28T09:14:14;14.05;;;8.07;;
34317;SDS011;20582;52.196;20.952;2023-07-28T09:16:41;14.85;;;8.38;;
34317;SDS011;20582;52.196;20.952;2023-07-28T09:19:07;13.43;;;8.45;;
34317;SDS011;20582;52.196;20.952;2023-07-28T09:21:34;12.80;;;9.15;;
34317;SDS011;20582;52.196;20.952;2023-07-28T09:24:00;13.95;;;8.55;;
34317;SDS011;20582;52.196;20.952;2023-07-28T09:26:47;11.75;;;8.20;;
34317;SDS011;20582;52.196;20.952;2023-07-28T09:29:16;12.77;;;7.57;;
34317;SDS011;20582;52.196;20.952;2023-07-28T09:31:43;11.50;;;7.15;;
34317;SDS011;20582;52.196;20.952;2023-07-28T09:34:09;12.40;;;6.70;;
34317;SDS011;20582;52.196;20.952;2023-07-28T09:36:35;10.02;;;6.70;;
34317;SDS011;20582;52.196;20.952;2023-07-28T09:39:03;11.07;;;6.22;;
34317;SDS011;20582;52.196;20.952;2023-07-28T09:41:29;12.80;;;6.65;;
34317;SDS011;20582;52.196;20.952;2023-07-28T09:43:56;11.85;;;6.43;;
34317;SDS011;20582;52.196;20.952;2023-07-28T09:46:22;10.32;;;6.32;;
34317;SDS011;20582;52.196;20.952;2023-07-28T09:48:48;10.00;;;5.70;;
34317;SDS011;20582;52.196;20.952;2023-07-28T09:51:18;9.75;;;6.35;;
34317;SDS011;20582;52.196;20.952;2023-07-28T09:53:53;9.40;;;6.35;;
34317;SDS011;20582;52.196;20.952;2023-07-28T09:56:19;9.63;;;6.13;;
34317;SDS011;20582;52.196;20.952;2023-07-28T09:58:51;10.55;;;6.38;;
34317;SDS011;20582;52.196;20.952;2023-07-28T10:01:17;14.23;;;8.45;;
34317;SDS011;20582;52.196;20.952;2023-07-28T10:03:43;10.95;;;6.47;;
34317;SDS011;20582;52.196;20.952;2023-07-28T10:06:09;11.18;;;6.28;;
34317;SDS011;20582;52.196;20.952;2023-07-28T10:08:35;12.65;;;6.25;;
34317;SDS011;20582;52.196;20.952;2023-07-28T10:11:02;12.52;;;7.57;;
34317;SDS011;20582;52.196;20.952;2023-07-28T10:13:33;11.38;;;6.55;;
34317;SDS011;20582;52.196;20.952;2023-07-28T10:16:04;14.27;;;7.68;;
34317;SDS011;20582;52.196;20.952;2023-07-28T10:18:30;11.07;;;6.47;;
34317;SDS011;20582;52.196;20.952;2023-07-28T10:21:03;13.35;;;7.15;;
34317;SDS011;20582;52.196;20.952;2023-07-28T10:23:29;15.80;;;9.50;;
34317;SDS011;20582;52.196;20.952;2023-07-28T10:25:56;19.95;;;11.90;;
34317;SDS011;20582;52.196;20.952;2023-07-28T10:28:30;13.30;;;7.03;;
34317;SDS011;20582;52.196;20.952;2023-07-28T10:30:57;14.02;;;7.13;;
34317;SDS011;20582;52.196;20.952;2023-07-28T10:33:30;10.27;;;6.60;;
34317;SDS011;20582;52.196;20.952;2023-07-28T10:36:09;12.90;;;8.07;;
34317;SDS011;20582;52.196;20.952;2023-07-28T10:38:36;11.40;;;6.20;;
34317;SDS011;20582;52.196;20.952;2023-07-28T10:41:20;12.80;;;6.72;;
34317;SDS011;20582;52.196;20.952;2023-07-28T10:43:47;12.40;;;6.78;;
34317;SDS011;20582;52.196;20.952;2023-07-28T10:46:17;14.07;;;6.82;;
34317;SDS011;20582;52.196;20.952;2023-07-28T10:48:44;12.80;;;6.80;;
34317;SDS011;20582;52.196;20.952;2023-07-28T10:51:11;10.85;;;6.07;;
34317;SDS011;20582;52.196;20.952;2023-07-28T10:53:37;12.57;;;6.28;;
34317;SDS011;20582;52.196;20.952;2023-07-28T10:56:03;10.18;;;6.35;;
34317;SDS011;20582;52.196;20.952;2023-07-28T10:58:31;13.25;;;6.88;;
34317;SDS011;20582;52.196;20.952;2023-07-28T11:01:00;10.85;;;5.90;;
34317;SDS011;20582;52.196;20.952;2023-07-28T11:03:27;10.15;;;6.22;;
34317;SDS011;20582;52.196;20.952;2023-07-28T11:05:54;11.07;;;6.15;;
34317;SDS011;20582;52.196;20.952;2023-07-28T11:08:21;10.93;;;5.88;;
34317;SDS011;20582;52.196;20.952;2023-07-28T11:10:47;13.73;;;7.15;;
34317;SDS011;20582;52.196;20.952;2023-07-28T11:13:13;8.73;;;5.63;;
34317;SDS011;20582;52.196;20.952;2023-07-28T11:15:39;11.55;;;6.47;;
34317;SDS011;20582;52.196;20.952;2023-07-28T11:18:06;10.25;;;6.03;;
34317;SDS011;20582;52.196;20.952;2023-07-28T11:20:32;10.35;;;6.43;;
34317;SDS011;20582;52.196;20.952;2023-07-28T11:22:59;10.43;;;5.60;;
34317;SDS011;20582;52.196;20.952;2023-07-28T11:25:27;9.25;;;5.18;;
34317;SDS011;20582;52.196;20.952;2023-07-28T11:27:53;11.18;;;4.20;;
34317;SDS011;20582;52.196;20.952;2023-07-28T11:30:20;5.90;;;3.47;;
34317;SDS011;20582;52.196;20.952;2023-07-28T11:32:47;8.90;;;3.58;;
34317;SDS011;20582;52.196;20.952;2023-07-28T11:35:15;7.38;;;3.00;;
34317;SDS011;20582;52.196;20.952;2023-07-28T11:37:42;5.88;;;2.95;;
34317;SDS011;20582;52.196;20.952;2023-07-28T11:40:08;4.95;;;2.78;;
34317;SDS011;20582;52.196;20.952;2023-07-28T11:42:38;4.55;;;2.45;;
34317;SDS011;20582;52.196;20.952;2023-07-28T11:45:05;4.85;;;2.13;;
34317;SDS011;20582;52.196;20.952;2023-07-28T11:47:31;4.88;;;2.20;;
34317;SDS011;20582;52.196;20.952;2023-07-28T11:49:57;5.97;;;2.20;;
34317;SDS011;20582;52.196;20.952;2023-07-28T11:52:29;3.15;;;1.80;;
34317;SDS011;20582;52.196;20.952;2023-07-28T11:54:55;4.72;;;2.28;;
34317;SDS011;20582;52.196;20.952;2023-07-28T11:57:21;5.97;;;2.10;;
34317;SDS011;20582;52.196;20.952;2023-07-28T11:59:47;3.10;;;1.80;;
34317;SDS011;20582;52.196;20.952;2023-07-28T12:02:13;2.22;;;1.63;;
34317;SDS011;20582;52.196;20.952;2023-07-28T12:04:39;3.28;;;1.92;;
34317;SDS011;20582;52.196;20.952;2023-07-28T12:12:16;4.38;;;1.85;;
34317;SDS011;20582;52.196;20.952;2023-07-28T12:14:43;4.20;;;2.00;;
34317;SDS011;20582;52.196;20.952;2023-07-28T12:17:14;3.70;;;1.90;;
34317;SDS011;20582;52.196;20.952;2023-07-28T12:22:25;4.95;;;2.20;;
34317;SDS011;20582;52.196;20.952;2023-07-28T12:24:52;3.83;;;1.88;;
34317;SDS011;20582;52.196;20.952;2023-07-28T12:27:18;4.13;;;1.90;;
34317;SDS011;20582;52.196;20.952;2023-07-28T12:29:48;5.47;;;1.87;;
34317;SDS011;20582;52.196;20.952;2023-07-28T12:32:14;4.03;;;2.05;;
34317;SDS011;20582;52.196;20.952;2023-07-28T12:34:40;4.65;;;1.80;;
34317;SDS011;20582;52.196;20.952;2023-07-28T12:37:06;5.88;;;2.08;;
34317;SDS011;20582;52.196;20.952;2023-07-28T12:39:32;3.63;;;2.03;;
34317;SDS011;20582;52.196;20.952;2023-07-28T12:41:58;3.50;;;2.15;;
34317;SDS011;20582;52.196;20.952;2023-07-28T12:44:24;3.90;;;2.15;;
34317;SDS011;20582;52.196;20.952;2023-07-28T12:46:50;5.57;;;1.98;;
34317;SDS011;20582;52.196;20.952;2023-07-28T12:49:16;3.75;;;2.05;;
34317;SDS011;20582;52.196;20.952;2023-07-28T12:51:44;4.15;;;1.95;;
34317;SDS011;20582;52.196;20.952;2023-07-28T12:54:10;4.57;;;1.98;;
34317;SDS011;20582;52.196;20.952;2023-07-28T12:56:36;4.75;;;2.10;;
34317;SDS011;20582;52.196;20.952;2023-07-28T12:59:02;3.38;;;1.70;;
34317;SDS011;20582;52.196;20.952;2023-07-28T13:01:28;5.35;;;1.70;;
34317;SDS011;20582;52.196;20.952;2023-07-28T13:03:54;4.47;;;1.73;;
34317;SDS011;20582;52.196;20.952;2023-07-28T13:06:20;3.70;;;1.77;;
34317;SDS011;20582;52.196;20.952;2023-07-28T13:08:46;4.93;;;1.60;;
34317;SDS011;20582;52.196;20.952;2023-07-28T13:11:12;4.15;;;1.75;;
34317;SDS011;20582;52.196;20.952;2023-07-28T13:13:41;3.38;;;1.77;;
34317;SDS011;20582;52.196;20.952;2023-07-28T13:16:07;4.47;;;2.10;;
34317;SDS011;20582;52.196;20.952;2023-07-28T13:18:33;3.83;;;1.65;;
34317;SDS011;20582;52.196;20.952;2023-07-28T13:20:59;5.15;;;1.60;;
34317;SDS011;20582;52.196;20.952;2023-07-28T13:23:25;4.25;;;1.70;;
34317;SDS011;20582;52.196;20.952;2023-07-28T13:25:51;4.20;;;2.60;;
34317;SDS011;20582;52.196;20.952;2023-07-28T13:28:17;3.90;;;1.50;;
34317;SDS011;20582;52.196;20.952;2023-07-28T13:30:43;2.45;;;1.52;;
34317;SDS011;20582;52.196;20.952;2023-07-28T13:33:09;3.63;;;1.60;;
34317;SDS011;20582;52.196;20.952;2023-07-28T13:35:35;3.47;;;1.85;;
34317;SDS011;20582;52.196;20.952;2023-07-28T13:38:01;4.38;;;2.00;;
34317;SDS011;20582;52.196;20.952;2023-07-28T13:40:27;2.72;;;1.60;;
34317;SDS011;20582;52.196;20.952;2023-07-28T13:42:53;3.13;;;1.55;;
34317;SDS011;20582;52.196;20.952;2023-07-28T13:45:19;3.30;;;1.80;;
34317;SDS011;20582;52.196;20.952;2023-07-28T13:47:45;4.68;;;1.63;;
34317;SDS011;20582;52.196;20.952;2023-07-28T13:50:11;2.60;;;1.73;;
34317;SDS011;20582;52.196;20.952;2023-07-28T13:52:37;3.10;;;1.85;;
34317;SDS011;20582;52.196;20.952;2023-07-28T13:55:03;4.20;;;1.42;;
34317;SDS011;20582;52.196;20.952;2023-07-28T13:57:30;2.78;;;1.70;;
34317;SDS011;20582;52.196;20.952;2023-07-28T13:59:56;2.85;;;2.05;;
34317;SDS011;20582;52.196;20.952;2023-07-28T14:02:22;4.60;;;1.95;;
34317;SDS011;20582;52.196;20.952;2023-07-28T14:04:48;2.90;;;1.70;;
34317;SDS011;20582;52.196;20.952;2023-07-28T14:07:15;3.95;;;2.20;;
34317;SDS011;20582;52.196;20.952;2023-07-28T14:09:41;3.40;;;2.10;;
34317;SDS011;20582;52.196;20.952;2023-07-28T14:12:07;2.70;;;2.10;;
34317;SDS011;20582;52.196;20.952;2023-07-28T14:14:33;3.90;;;2.05;;
34317;SDS011;20582;52.196;20.952;2023-07-28T14:16:59;2.67;;;2.10;;
34317;SDS011;20582;52.196;20.952;2023-07-28T14:19:25;3.35;;;1.92;;
34317;SDS011;20582;52.196;20.952;2023-07-28T14:21:51;2.45;;;1.67;;
34317;SDS011;20582;52.196;20.952;2023-07-28T14:24:17;3.75;;;2.10;;
34317;SDS011;20582;52.196;20.952;2023-07-28T14:26:43;2.95;;;1.80;;
34317;SDS011;20582;52.196;20.952;2023-07-28T14:29:09;2.58;;;2.05;;
34317;SDS011;20582;52.196;20.952;2023-07-28T14:31:35;2.72;;;1.73;;